Time;durP1;ratioP1;P1;durP2;ratioP2;P2;SDS_P1;SDS_P2;PMS_P1;PMS_P2;Temp;Humidity;BMP_temperature;BMP_pressure;BME280_temperature;BME280_humidity;BME280_pressure;Samples;Min_cycle;Max_cycle;Signal;HPM_P1;HPM_P2
2022/04/08 00:02:52;;;;;;;;;3.40;1.40;;;;;17.19;41.85;96293.22;6105058;28;96309;-70
2022/04/08 00:05:57;;;;;;;;;1.80;1.80;;;;;17.25;41.82;96292.69;6092721;28;98479;-70
2022/04/08 00:09:00;;;;;;;;;2.00;2.00;;;;;17.24;41.78;96312.09;6137933;28;96673;-70
2022/04/08 00:12:04;;;;;;;;;1.00;1.00;;;;;17.14;41.67;96272.44;6086974;28;97319;-71
2022/04/08 00:15:08;;;;;;;;;1.40;1.40;;;;;17.20;42.15;96301.06;6098229;28;98099;-71
2022/04/08 00:18:13;;;;;;;;;1.75;1.75;;;;;17.14;42.64;96307.81;6093214;28;96385;-71
2022/04/08 00:21:17;;;;;;;;;1.00;1.00;;;;;17.24;42.81;96312.91;6110839;28;96604;-69
2022/04/08 00:24:20;;;;;;;;;1.00;1.00;;;;;17.22;43.31;96304.25;6114368;28;97575;-69
2022/04/08 00:27:23;;;;;;;;;2.00;2.00;;;;;17.26;44.01;96307.91;6057314;28;96701;-70
2022/04/08 00:30:27;;;;;;;;;2.00;2.00;;;;;17.36;43.74;96314.13;6130275;28;99594;-70
2022/04/08 00:33:33;;;;;;;;;2.00;2.00;;;;;17.41;43.71;96319.38;6106936;28;98510;-71
2022/04/08 00:36:36;;;;;;;;;1.00;1.00;;;;;17.60;43.98;96322.53;6100899;28;97401;-70
2022/04/08 00:39:39;;;;;;;;;2.80;2.80;;;;;17.74;43.97;96331.25;6098368;28;98103;-70
2022/04/08 00:42:44;;;;;;;;;1.00;1.00;;;;;17.59;44.24;96297.19;6086664;28;98662;-70
2022/04/08 00:45:47;;;;;;;;;2.00;2.00;;;;;17.73;44.63;96325.03;6087588;28;97410;-69
2022/04/08 00:48:52;;;;;;;;;2.00;1.00;;;;;17.74;45.36;96348.41;6106432;28;97270;-70
2022/04/08 00:51:55;;;;;;;;;2.00;1.40;;;;;17.63;46.32;96381.81;6093207;28;96832;-71
2022/04/08 00:54:58;;;;;;;;;2.00;2.00;;;;;17.57;47.32;96386.63;6086983;28;96630;-70
2022/04/08 00:58:03;;;;;;;;;2.00;2.00;;;;;17.53;47.67;96382.94;6088539;28;96971;-72
2022/04/08 01:01:06;;;;;;;;;1.00;1.00;;;;;17.45;48.14;96381.03;6084954;28;96679;-72
2022/04/08 01:04:11;;;;;;;;;2.00;2.00;;;;;17.33;48.55;96365.41;6087588;28;98690;-71
2022/04/08 01:07:15;;;;;;;;;1.00;1.00;;;;;17.23;48.94;96411.25;6150183;28;97581;-71
2022/04/08 01:10:18;;;;;;;;;2.00;2.00;;;;;17.07;49.22;96440.09;6093623;28;97770;-70
2022/04/08 01:13:22;;;;;;;;;2.00;2.00;;;;;16.99;48.95;96443.63;6120712;28;98489;-71
2022/04/08 01:16:25;;;;;;;;;2.00;2.00;;;;;16.94;48.48;96439.16;6146976;28;97025;-71
2022/04/08 01:19:30;;;;;;;;;3.25;2.00;;;;;16.82;48.82;96444.44;6100069;28;96887;-70
2022/04/08 01:22:33;;;;;;;;;2.00;2.00;;;;;16.73;48.86;96463.47;6106464;28;96480;-70
2022/04/08 01:25:38;;;;;;;;;3.00;2.00;;;;;16.65;49.45;96486.06;6138306;28;96877;-71
2022/04/08 01:28:45;;;;;;;;;2.00;1.60;;;;;16.38;50.16;96492.53;6089487;28;97457;-71
2022/04/08 01:31:48;;;;;;;;;3.00;2.00;;;;;16.33;50.35;96486.44;6088970;28;96528;-71
2022/04/08 01:34:53;;;;;;;;;1.00;1.00;;;;;16.15;51.02;96487.50;6114837;28;97444;-71
2022/04/08 01:37:56;;;;;;;;;1.40;1.00;;;;;16.02;51.46;96476.47;6134684;28;96589;-72
2022/04/08 01:41:01;;;;;;;;;2.00;2.00;;;;;15.95;51.41;96476.09;6079117;28;98546;-71
2022/04/08 01:44:04;;;;;;;;;2.00;1.00;;;;;15.80;52.19;96464.84;6096656;28;98287;-71
2022/04/08 01:47:08;;;;;;;;;1.60;1.00;;;;;15.65;52.74;96486.97;6060853;28;96778;-71
2022/04/08 01:50:18;;;;;;;;;1.00;1.00;;;;;15.62;53.05;96493.06;6085223;28;97406;-71
2022/04/08 01:53:21;;;;;;;;;1.00;1.00;;;;;15.59;52.74;96484.41;6089472;28;97586;-71
2022/04/08 01:56:26;;;;;;;;;1.20;1.20;;;;;15.49;53.37;96479.22;6088052;28;97877;-71
2022/04/08 01:59:29;;;;;;;;;1.00;1.00;;;;;15.58;53.08;96520.03;6088515;28;97475;-71
2022/04/08 02:02:32;;;;;;;;;1.00;1.00;;;;;15.47;52.83;96499.66;6099553;28;97459;-70
2022/04/08 02:05:36;;;;;;;;;1.00;1.00;;;;;15.46;51.96;96500.75;6088984;28;96473;-70
2022/04/08 02:08:40;;;;;;;;;2.00;2.00;;;;;15.40;52.01;96507.41;6082175;28;96584;-71
2022/04/08 02:11:45;;;;;;;;;1.00;1.00;;;;;15.46;52.11;96498.03;6088229;28;96355;-71
2022/04/08 02:14:48;;;;;;;;;1.00;1.00;;;;;15.50;51.07;96493.59;6138311;28;97775;-71
2022/04/08 02:17:52;;;;;;;;;1.00;1.00;;;;;15.43;50.88;96510.34;6116042;28;96872;-71
2022/04/08 02:20:56;;;;;;;;;2.00;1.00;;;;;15.36;51.26;96507.25;6091723;28;98673;-70
2022/04/08 02:23:59;;;;;;;;;1.00;1.00;;;;;15.21;51.36;96491.34;6094532;28;96971;-70
2022/04/08 02:27:06;;;;;;;;;2.00;1.80;;;;;15.16;51.22;96502.31;6087273;28;98017;-71
2022/04/08 02:30:12;;;;;;;;;1.00;1.00;;;;;15.21;50.44;96507.63;6086953;28;98292;-71
2022/04/08 02:33:15;;;;;;;;;1.00;1.00;;;;;15.20;49.07;96516.09;6087452;28;96920;-71
2022/04/08 02:36:18;;;;;;;;;0.00;0.00;;;;;15.07;48.48;96520.44;6086183;28;96647;-71
2022/04/08 02:39:21;;;;;;;;;1.00;1.00;;;;;14.90;48.70;96529.28;6086007;28;96800;-71
2022/04/08 02:42:30;;;;;;;;;2.00;1.00;;;;;14.87;48.59;96513.59;6140000;28;96411;-70
2022/04/08 02:45:33;;;;;;;;;1.00;1.00;;;;;14.73;48.15;96512.84;6140723;28;97611;-71
2022/04/08 02:48:36;;;;;;;;;2.00;1.00;;;;;14.63;45.93;96522.00;6105570;28;97684;-71
2022/04/08 02:51:40;;;;;;;;;1.00;1.00;;;;;14.43;46.14;96486.38;6133599;28;96890;-70
2022/04/08 02:54:44;;;;;;;;;0.00;0.00;;;;;14.64;45.48;96526.31;6113940;28;96537;-71
2022/04/08 02:57:50;;;;;;;;;1.00;0.75;;;;;14.64;44.50;96544.50;6128108;28;96445;-70
2022/04/08 03:00:53;;;;;;;;;1.00;1.00;;;;;14.68;45.41;96531.94;6212125;28;97946;-71
2022/04/08 03:03:57;;;;;;;;;1.00;1.00;;;;;14.72;45.52;96547.28;6078154;28;98454;-71
2022/04/08 03:07:01;;;;;;;;;1.75;1.75;;;;;14.79;45.55;96546.06;6088364;28;97407;-71
2022/04/08 03:10:05;;;;;;;;;2.00;1.00;;;;;14.72;44.56;96555.41;6087411;28;97324;-70
2022/04/08 03:13:10;;;;;;;;;3.00;2.00;;;;;14.66;42.98;96564.00;6154095;28;98080;-70
2022/04/08 03:16:15;;;;;;;;;1.00;1.00;;;;;14.34;42.18;96578.44;6121617;28;97709;-71
2022/04/08 03:19:19;;;;;;;;;1.00;1.00;;;;;14.41;41.39;96580.78;6092215;28;96736;-70
2022/04/08 03:22:22;;;;;;;;;1.20;1.20;;;;;14.41;41.24;96570.75;6077765;28;96618;-71
2022/04/08 03:25:25;;;;;;;;;1.00;1.00;;;;;14.38;40.56;96568.63;6086255;28;97477;-70
2022/04/08 03:28:31;;;;;;;;;2.00;2.00;;;;;14.58;40.54;96584.47;6086604;28;96630;-71
2022/04/08 03:31:35;;;;;;;;;1.00;1.00;;;;;14.59;40.25;96594.22;6088536;28;96728;-71
2022/04/08 03:34:38;;;;;;;;;2.00;2.00;;;;;14.53;39.64;96595.41;6087844;28;97441;-71
2022/04/08 03:37:41;;;;;;;;;2.00;1.00;;;;;14.45;39.61;96609.69;6088074;28;97147;-71
2022/04/08 03:40:45;;;;;;;;;3.00;3.00;;;;;14.22;39.48;96605.25;6088503;28;96309;-71
2022/04/08 03:43:49;;;;;;;;;2.60;2.00;;;;;14.39;39.92;96634.47;6087049;28;96852;-71
2022/04/08 03:46:52;;;;;;;;;1.40;1.40;;;;;14.33;40.00;96641.88;6087736;28;97445;-71
2022/04/08 03:49:57;;;;;;;;;2.00;1.40;;;;;14.31;39.99;96652.22;6120773;28;99640;-70
2022/04/08 03:53:00;;;;;;;;;1.00;1.00;;;;;14.24;39.71;96655.31;6134079;28;97425;-71
2022/04/08 03:56:04;;;;;;;;;2.00;2.00;;;;;14.09;39.21;96658.28;6083346;28;97617;-71
2022/04/08 03:59:08;;;;;;;;;2.00;2.00;;;;;13.99;38.40;96660.38;6114138;28;96950;-71
2022/04/08 04:02:12;;;;;;;;;1.00;1.00;;;;;13.88;38.67;96655.13;6093257;28;96944;-71
2022/04/08 04:05:15;;;;;;;;;1.00;1.00;;;;;13.88;38.66;96668.66;6125627;28;97017;-71
2022/04/08 04:08:19;;;;;;;;;0.00;0.00;;;;;13.96;38.30;96669.09;6090146;28;97460;-70
2022/04/08 04:11:23;;;;;;;;;1.00;1.00;;;;;13.93;37.52;96680.53;6134148;28;98842;-70
2022/04/08 04:14:27;;;;;;;;;1.00;1.00;;;;;13.83;37.64;96684.19;6098306;28;99944;-70
2022/04/08 04:17:30;;;;;;;;;1.00;1.00;;;;;13.76;37.52;96694.63;6108685;28;97133;-70
2022/04/08 04:20:34;;;;;;;;;1.00;1.00;;;;;13.89;37.58;96712.81;6124189;28;96790;-72
2022/04/08 04:23:37;;;;;;;;;1.00;1.00;;;;;13.88;37.34;96711.19;6111786;28;99913;-71
2022/04/08 04:26:41;;;;;;;;;1.00;1.00;;;;;13.66;37.19;96689.34;6088769;28;98954;-71
2022/04/08 04:29:46;;;;;;;;;1.00;1.00;;;;;13.85;36.61;96717.22;6111222;28;97429;-70
2022/04/08 04:32:49;;;;;;;;;1.25;1.25;;;;;13.78;36.52;96717.56;6090442;28;98410;-70
2022/04/08 04:35:52;;;;;;;;;1.00;0.00;;;;;13.83;36.19;96725.63;6138715;28;97374;-71
2022/04/08 04:38:55;;;;;;;;;1.00;1.00;;;;;13.65;36.17;96687.75;6081061;28;97531;-71
2022/04/08 04:41:58;;;;;;;;;1.00;0.80;;;;;13.94;35.83;96731.69;6085984;28;97423;-71
2022/04/08 04:45:04;;;;;;;;;1.00;1.00;;;;;13.89;35.35;96740.69;6099119;28;96960;-71
2022/04/08 04:48:08;;;;;;;;;1.00;0.80;;;;;13.88;35.18;96739.09;6088145;28;97742;-70
2022/04/08 04:51:13;;;;;;;;;1.00;1.00;;;;;14.03;35.40;96746.16;6127655;28;98453;-70
2022/04/08 04:54:17;;;;;;;;;1.00;1.00;;;;;13.95;34.99;96735.19;6140305;28;98956;-70
2022/04/08 04:57:21;;;;;;;;;1.00;0.80;;;;;14.06;34.69;96752.91;6213631;28;96481;-71
2022/04/08 05:00:25;;;;;;;;;2.00;1.00;;;;;14.05;34.83;96749.41;6158831;28;97430;-71
2022/04/08 05:03:29;;;;;;;;;1.00;1.00;;;;;14.08;34.78;96753.41;6091393;28;96289;-71
2022/04/08 05:06:34;;;;;;;;;0.50;0.00;;;;;14.24;34.66;96744.75;6113889;28;97504;-71
2022/04/08 05:09:39;;;;;;;;;1.00;1.00;;;;;14.29;34.45;96760.09;6117198;28;96472;-70
2022/04/08 05:12:42;;;;;;;;;1.00;1.00;;;;;14.23;34.45;96751.25;6121108;28;99625;-70
2022/04/08 05:15:47;;;;;;;;;1.00;1.00;;;;;14.18;34.64;96750.53;6158552;28;97798;-70
2022/04/08 05:18:50;;;;;;;;;2.00;1.00;;;;;14.26;34.42;96761.53;6114349;28;96503;-70
2022/04/08 05:21:54;;;;;;;;;1.00;1.00;;;;;14.33;34.52;96782.78;6113364;28;97514;-69
2022/04/08 05:24:58;;;;;;;;;2.00;1.20;;;;;14.17;35.07;96779.53;6116240;28;97081;-70
2022/04/08 05:28:01;;;;;;;;;1.00;1.00;;;;;14.07;35.09;96784.34;6083971;28;98450;-70
2022/04/08 05:31:06;;;;;;;;;0.60;0.40;;;;;13.75;34.89;96772.34;6116344;28;97031;-70
2022/04/08 05:34:09;;;;;;;;;1.00;1.00;;;;;13.85;34.68;96784.91;6086982;28;97031;-70
2022/04/08 05:37:13;;;;;;;;;0.60;0.00;;;;;14.01;34.79;96790.91;6091846;28;97351;-70
2022/04/08 05:40:18;;;;;;;;;0.00;0.00;;;;;14.06;34.27;96798.97;6112834;28;96515;-70
2022/04/08 05:43:21;;;;;;;;;0.80;0.80;;;;;14.01;34.40;96813.41;6090386;28;97519;-69
2022/04/08 05:46:26;;;;;;;;;0.00;0.00;;;;;14.14;34.40;96809.94;6087999;28;96729;-70
2022/04/08 05:49:29;;;;;;;;;0.80;0.00;;;;;14.05;34.10;96810.91;6087465;28;97171;-70
2022/04/08 05:52:32;;;;;;;;;1.00;1.00;;;;;14.15;33.92;96814.25;6089912;28;97026;-70
2022/04/08 05:55:36;;;;;;;;;2.00;1.00;;;;;14.24;33.64;96815.19;6087571;28;97132;-70
2022/04/08 05:58:39;;;;;;;;;2.00;2.00;;;;;14.45;33.22;96826.56;6089243;28;97415;-71
2022/04/08 06:01:43;;;;;;;;;2.00;2.00;;;;;14.59;32.62;96816.56;6089211;28;97403;-71
2022/04/08 06:04:47;;;;;;;;;1.00;1.00;;;;;14.70;32.21;96830.75;6087274;28;98265;-71
2022/04/08 06:07:52;;;;;;;;;1.00;1.00;;;;;14.76;32.04;96813.25;6085124;28;96854;-71
2022/04/08 06:10:55;;;;;;;;;0.00;0.00;;;;;14.98;32.09;96832.41;6084936;28;97644;-70
2022/04/08 06:13:58;;;;;;;;;1.20;1.00;;;;;15.15;31.77;96835.31;6087267;28;97871;-70
2022/04/08 06:17:04;;;;;;;;;2.00;1.00;;;;;15.19;31.02;96838.25;6070970;28;97371;-71
2022/04/08 06:20:10;;;;;;;;;1.00;0.80;;;;;15.11;30.85;96838.94;6074914;28;96875;-71
2022/04/08 06:23:13;;;;;;;;;1.00;1.00;;;;;14.98;30.63;96826.16;6093368;28;97754;-70
2022/04/08 06:26:16;;;;;;;;;1.00;1.00;;;;;15.18;30.61;96851.00;6098377;28;96881;-71
2022/04/08 06:29:20;;;;;;;;;2.75;2.75;;;;;15.10;30.10;96854.41;6100011;28;97989;-71
2022/04/08 06:32:24;;;;;;;;;1.00;1.00;;;;;15.05;30.55;96853.72;6068322;28;97874;-70
2022/04/08 06:35:27;;;;;;;;;1.00;1.00;;;;;15.25;30.68;96864.16;6104507;28;98641;-71
2022/04/08 06:38:31;;;;;;;;;1.00;1.00;;;;;15.66;30.28;96871.56;6081243;28;96983;-71
2022/04/08 06:41:34;;;;;;;;;1.00;1.00;;;;;15.65;29.61;96840.88;6083105;28;97018;-71
2022/04/08 06:44:37;;;;;;;;;4.00;2.00;;;;;15.75;29.73;96861.56;6102359;28;96674;-72
2022/04/08 06:47:49;;;;;;;;;2.00;1.00;;;;;15.94;29.95;96848.66;6087968;28;96809;-71
2022/04/08 06:50:53;;;;;;;;;2.00;2.00;;;;;16.25;28.64;96884.13;6083283;28;98459;-71
2022/04/08 06:53:56;;;;;;;;;3.00;2.00;;;;;16.31;28.73;96878.28;6083505;28;96572;-71
2022/04/08 06:56:59;;;;;;;;;0.60;0.00;;;;;16.61;28.63;96865.09;6086731;28;96913;-71
2022/04/08 07:00:03;;;;;;;;;0.00;0.00;;;;;16.91;27.84;96872.47;6086179;28;96602;-71
2022/04/08 07:03:08;;;;;;;;;2.00;0.50;;;;;16.87;27.84;96874.22;6078148;28;96402;-71
2022/04/08 07:06:12;;;;;;;;;1.00;1.00;;;;;16.92;27.82;96911.41;6078425;28;99502;-71
2022/04/08 07:09:15;;;;;;;;;1.00;1.00;;;;;16.50;27.30;96880.84;6061562;28;96716;-72
2022/04/08 07:12:18;;;;;;;;;1.25;1.25;;;;;16.84;27.46;96918.41;6063742;28;96396;-70
2022/04/08 07:15:22;;;;;;;;;1.25;1.25;;;;;16.83;27.05;96923.03;6070805;28;97400;-70
2022/04/08 07:18:27;;;;;;;;;2.75;2.00;;;;;17.01;27.55;96906.81;6086380;28;96560;-70
2022/04/08 07:21:30;;;;;;;;;1.00;0.00;;;;;17.39;27.04;96910.72;6086809;28;96336;-71
2022/04/08 07:24:35;;;;;;;;;1.20;1.00;;;;;17.29;26.33;96932.78;6124404;28;96549;-72
2022/04/08 07:27:46;;;;;;;;;2.20;1.80;;;;;17.43;26.35;96924.50;6087380;28;96857;-72
2022/04/08 07:30:50;;;;;;;;;2.00;2.00;;;;;17.73;26.42;96940.06;6086970;28;97349;-72
2022/04/08 07:33:55;;;;;;;;;1.00;1.00;;;;;18.08;25.82;96939.03;6087595;28;97544;-72
2022/04/08 07:36:59;;;;;;;;;1.00;1.00;;;;;18.08;25.73;96949.16;6086876;28;96841;-73
2022/04/08 07:40:06;;;;;;;;;1.00;1.00;;;;;18.18;25.35;96946.91;6087526;28;96800;-72
2022/04/08 07:43:10;;;;;;;;;1.00;1.00;;;;;18.24;25.42;96955.75;6086585;28;96784;-70
2022/04/08 07:46:13;;;;;;;;;1.00;0.00;;;;;18.61;25.40;96962.59;6085295;28;96763;-71
2022/04/08 07:49:18;;;;;;;;;1.00;1.00;;;;;18.89;24.91;96950.25;6076781;28;97215;-71
2022/04/08 07:52:21;;;;;;;;;1.00;1.00;;;;;18.88;24.69;96967.75;6063379;28;96730;-71
2022/04/08 07:55:26;;;;;;;;;3.00;2.00;;;;;19.03;23.91;96956.34;6069738;28;97142;-72
2022/04/08 07:58:29;;;;;;;;;3.00;2.00;;;;;19.19;24.81;96970.28;6085096;28;97426;-72
2022/04/08 08:01:32;;;;;;;;;2.00;2.00;;;;;19.21;24.17;96968.03;6064843;28;97379;-72
2022/04/08 08:04:37;;;;;;;;;3.00;2.00;;;;;18.90;24.12;96957.31;6078969;28;96449;-71
2022/04/08 08:07:48;;;;;;;;;1.00;0.00;;;;;18.68;24.71;96983.94;6083687;28;96425;-72
2022/04/08 08:10:51;;;;;;;;;2.40;2.00;;;;;18.76;24.66;96981.25;6094854;28;97863;-71
2022/04/08 08:13:54;;;;;;;;;2.00;2.00;;;;;18.73;24.88;96972.88;6100078;28;96514;-73
2022/04/08 08:16:58;;;;;;;;;1.00;1.00;;;;;18.77;24.75;96990.22;6087741;28;96087;-71
2022/04/08 08:20:04;;;;;;;;;1.20;1.20;;;;;19.19;24.43;96994.06;6089583;28;96719;-72
2022/04/08 08:23:07;;;;;;;;;1.00;1.00;;;;;19.32;23.27;97010.28;6085882;28;96805;-71
2022/04/08 08:26:10;;;;;;;;;1.00;1.00;;;;;19.42;23.74;97007.22;6087301;28;96423;-70
2022/04/08 08:29:14;;;;;;;;;1.00;1.00;;;;;19.67;23.74;97015.72;6193167;28;96512;-70
2022/04/08 08:32:17;;;;;;;;;1.00;1.00;;;;;19.49;23.25;97028.63;6194331;28;98764;-70
2022/04/08 08:35:25;;;;;;;;;1.40;1.40;;;;;19.19;23.66;97035.06;6193271;28;96715;-70
2022/04/08 08:38:34;;;;;;;;;2.00;2.00;;;;;19.57;23.49;97037.94;6081187;28;97586;-71
2022/04/08 08:41:38;;;;;;;;;1.00;1.00;;;;;19.16;23.46;97047.41;6081159;28;96506;-71
2022/04/08 08:44:41;;;;;;;;;3.00;2.00;;;;;18.88;24.08;97052.38;6081205;28;97725;-70
2022/04/08 08:47:48;;;;;;;;;2.00;1.75;;;;;18.58;24.38;97045.91;6085083;28;97678;-70
2022/04/08 08:50:55;;;;;;;;;2.00;1.00;;;;;18.35;24.21;97049.03;6119952;28;97163;-70
2022/04/08 08:53:59;;;;;;;;;1.00;1.00;;;;;18.17;24.98;97051.69;6087760;28;96482;-71
2022/04/08 08:57:03;;;;;;;;;1.40;1.40;;;;;17.98;25.19;97050.34;6081741;28;97488;-72
2022/04/08 09:00:12;;;;;;;;;2.00;2.00;;;;;17.33;25.51;97072.66;6087959;28;97297;-71
2022/04/08 09:03:16;;;;;;;;;2.00;2.00;;;;;17.34;25.84;97063.38;6081558;28;96724;-71
2022/04/08 09:06:21;;;;;;;;;2.00;2.00;;;;;17.39;26.01;97063.25;6073192;28;97030;-71
2022/04/08 09:09:31;;;;;;;;;2.00;2.00;;;;;17.55;26.08;97064.47;6084377;28;97503;-71
2022/04/08 09:12:34;;;;;;;;;1.00;1.00;;;;;17.56;25.51;97089.78;6063410;28;97138;-70
2022/04/08 09:15:39;;;;;;;;;1.00;1.00;;;;;17.58;25.58;97065.78;6089665;28;96645;-70
2022/04/08 09:18:49;;;;;;;;;2.00;2.00;;;;;17.97;25.37;97082.25;6214714;28;98433;-70
2022/04/08 09:21:54;;;;;;;;;2.00;1.40;;;;;17.84;25.56;97072.22;6215044;28;96545;-71
2022/04/08 09:25:08;;;;;;;;;1.00;1.00;;;;;17.54;25.56;97071.06;6198038;28;96921;-71
2022/04/08 09:28:13;;;;;;;;;1.00;0.60;;;;;17.18;25.86;97041.16;6097394;28;96283;-71
2022/04/08 09:31:18;;;;;;;;;3.60;3.00;;;;;17.54;25.78;97073.78;6088283;28;96868;-71
2022/04/08 09:34:22;;;;;;;;;0.50;0.50;;;;;17.45;25.58;97089.25;6088935;28;97395;-71
2022/04/08 09:37:28;;;;;;;;;0.25;0.00;;;;;17.42;25.56;97083.59;6125773;28;96885;-71
2022/04/08 09:40:36;;;;;;;;;1.40;1.40;;;;;17.14;25.68;97091.91;6086164;28;96632;-71
2022/04/08 09:43:40;;;;;;;;;2.00;1.00;;;;;17.33;25.56;97084.34;6090729;28;96536;-71
2022/04/08 09:46:44;;;;;;;;;2.00;1.00;;;;;17.84;25.76;97076.88;6143599;28;97683;-71
2022/04/08 09:49:47;;;;;;;;;1.00;1.00;;;;;17.75;25.12;97079.53;6214712;28;96407;-71
2022/04/08 09:52:52;;;;;;;;;2.00;2.00;;;;;17.92;25.18;97073.38;6214763;28;98156;-71
2022/04/08 09:55:55;;;;;;;;;2.00;2.00;;;;;17.86;24.39;97089.06;6168761;28;96478;-71
2022/04/08 09:59:06;;;;;;;;;2.00;2.00;;;;;17.81;24.69;97044.78;6089686;28;97102;-70
2022/04/08 10:02:11;;;;;;;;;1.00;1.00;;;;;18.15;24.80;97050.41;6068490;28;97007;-71
2022/04/08 10:05:14;;;;;;;;;4.00;3.00;;;;;19.03;23.91;97084.69;6059933;28;97697;-72
2022/04/08 10:08:19;;;;;;;;;2.00;2.00;;;;;19.30;23.72;97090.97;6100405;28;96616;-71
2022/04/08 10:11:29;;;;;;;;;2.00;2.00;;;;;18.96;23.38;97080.84;6096356;28;98760;-71
2022/04/08 10:14:41;;;;;;;;;2.00;2.00;;;;;19.18;23.64;97074.41;6064529;28;96491;-72
2022/04/08 10:17:55;;;;;;;;;2.00;2.00;;;;;19.97;23.35;97077.56;6082817;28;97412;-72
2022/04/08 10:21:00;;;;;;;;;2.00;2.00;;;;;20.13;22.46;97091.53;6066102;28;96824;-72
2022/04/08 10:24:10;;;;;;;;;2.00;2.00;;;;;19.86;22.48;97062.63;6067890;28;97180;-71
2022/04/08 10:27:13;;;;;;;;;2.00;2.00;;;;;19.61;23.27;97077.94;6124347;28;96391;-72
2022/04/08 10:30:22;;;;;;;;;2.00;2.00;;;;;19.57;22.16;97049.66;6090722;28;97364;-71
2022/04/08 10:33:26;;;;;;;;;1.00;1.00;;;;;19.99;22.70;97075.28;6091769;28;97173;-72
2022/04/08 10:36:35;;;;;;;;;2.00;2.00;;;;;19.62;22.77;97093.22;6089045;28;96455;-72
2022/04/08 10:39:42;;;;;;;;;1.00;1.00;;;;;19.31;23.16;97095.28;6086791;28;96733;-71
2022/04/08 10:42:57;;;;;;;;;2.00;2.00;;;;;19.42;22.84;97096.59;6084244;28;96452;-71
2022/04/08 10:46:00;;;;;;;;;2.00;2.00;;;;;19.73;22.08;97089.03;6098348;28;97386;-71
2022/04/08 10:49:03;;;;;;;;;2.00;2.00;;;;;20.14;22.98;97082.97;6088153;28;97328;-71
2022/04/08 10:52:15;;;;;;;;;2.40;2.40;;;;;20.25;22.37;97091.63;6085161;28;97479;-71
2022/04/08 10:55:20;;;;;;;;;3.00;1.00;;;;;20.47;22.35;97090.63;6108359;28;96667;-71
2022/04/08 10:58:33;;;;;;;;;2.00;2.00;;;;;20.35;22.69;97096.78;6101787;28;96994;-71
2022/04/08 11:01:45;;;;;;;;;3.00;2.00;;;;;20.37;22.48;97082.78;6100442;28;97337;-71
2022/04/08 11:04:49;;;;;;;;;1.00;1.00;;;;;21.24;21.25;97103.88;6064924;28;96632;-72
2022/04/08 11:07:52;;;;;;;;;2.00;2.00;;;;;21.61;20.36;97096.63;6088725;28;97358;-71
2022/04/08 11:11:03;;;;;;;;;2.00;2.00;;;;;21.41;19.98;97111.94;6082803;28;99411;-72
2022/04/08 11:14:08;;;;;;;;;2.60;2.00;;;;;21.42;19.95;97094.38;6081474;28;97205;-71
2022/04/08 11:17:11;;;;;;;;;1.40;1.40;;;;;21.66;20.40;97099.16;6082773;28;96779;-72
2022/04/08 11:20:17;;;;;;;;;2.00;2.00;;;;;21.91;19.19;97103.59;6059323;28;97989;-72
2022/04/08 11:23:26;;;;;;;;;2.00;2.00;;;;;21.59;20.50;97098.91;6069272;28;97410;-71
2022/04/08 11:26:32;;;;;;;;;2.00;2.00;;;;;21.04;20.31;97124.59;6081247;28;98062;-72
2022/04/08 11:29:38;;;;;;;;;2.00;2.00;;;;;20.56;20.63;97144.19;6138381;28;96590;-71
2022/04/08 11:32:41;;;;;;;;;2.00;2.00;;;;;21.26;20.53;97109.03;6063739;28;97373;-71
2022/04/08 11:35:45;;;;;;;;;3.00;2.00;;;;;21.16;20.70;97126.63;6107920;28;96835;-71
2022/04/08 11:38:48;;;;;;;;;2.00;2.00;;;;;21.48;19.96;97108.69;6099064;28;97917;-71
2022/04/08 11:42:10;;;;;;;;;2.00;2.00;;;;;21.93;19.90;97112.34;6086840;28;97358;-72
2022/04/08 11:45:14;;;;;;;;;3.00;2.00;;;;;22.27;19.38;97078.22;6085715;28;97641;-71
2022/04/08 11:48:19;;;;;;;;;2.00;2.00;;;;;22.17;19.02;97088.84;6143722;28;99456;-72
2022/04/08 11:51:31;;;;;;;;;3.00;3.00;;;;;22.29;19.49;97108.84;6086328;28;98498;-72
2022/04/08 11:54:36;;;;;;;;;2.00;2.00;;;;;22.55;18.75;97102.25;6084672;28;97358;-71
2022/04/08 11:58:00;;;;;;;;;2.00;1.00;;;;;23.11;18.56;97071.13;6167322;28;97225;-71
2022/04/08 12:01:05;;;;;;;;;1.00;1.00;;;;;22.57;19.11;97095.28;6211537;28;96325;-72
2022/04/08 12:04:10;;;;;;;;;1.00;1.00;;;;;22.96;18.26;97084.78;6195296;28;96523;-71
2022/04/08 12:07:23;;;;;;;;;1.00;1.00;;;;;22.70;18.43;97090.59;6165807;28;97026;-71
2022/04/08 12:10:27;;;;;;;;;2.00;2.00;;;;;22.80;18.78;97069.00;6194313;28;98357;-71
2022/04/08 12:13:35;;;;;;;;;3.00;2.00;;;;;22.53;17.99;97072.38;6129366;28;97714;-72
2022/04/08 12:16:39;;;;;;;;;2.00;2.00;;;;;22.73;18.19;97073.44;6141008;28;97640;-72
2022/04/08 12:19:43;;;;;;;;;2.00;2.00;;;;;21.93;19.46;97046.50;6070437;28;96960;-72
2022/04/08 12:22:47;;;;;;;;;1.00;1.00;;;;;21.71;19.37;97062.50;6087510;28;97350;-73
2022/04/08 12:25:53;;;;;;;;;2.40;2.00;;;;;22.12;19.15;97070.66;6087388;28;96966;-72
2022/04/08 12:29:09;;;;;;;;;1.50;1.50;;;;;22.26;18.67;97084.84;6109359;28;96587;-73
2022/04/08 12:32:14;;;;;;;;;2.00;2.00;;;;;22.39;19.13;97061.75;6098153;28;97449;-71
2022/04/08 12:35:17;;;;;;;;;2.00;2.00;;;;;22.65;18.53;97069.66;6108362;28;98201;-71
2022/04/08 12:38:20;;;;;;;;;2.00;2.00;;;;;22.39;19.01;97078.22;6214242;28;96398;-72
2022/04/08 12:41:25;;;;;;;;;2.20;1.00;;;;;22.53;18.69;97069.63;6215683;28;96308;-70
2022/04/08 12:44:29;;;;;;;;;1.00;1.00;;;;;22.52;18.80;97054.34;6156825;28;96645;-71
2022/04/08 12:47:33;;;;;;;;;1.00;1.00;;;;;22.45;18.75;97051.34;6138741;28;97414;-72
2022/04/08 12:50:39;;;;;;;;;1.00;1.00;;;;;22.49;19.22;97055.00;6210622;28;97393;-71
2022/04/08 12:53:42;;;;;;;;;2.00;2.00;;;;;22.66;18.88;97048.50;6070603;28;100622;-72
2022/04/08 12:56:45;;;;;;;;;1.00;1.00;;;;;22.57;19.06;97034.88;6182156;28;97543;-71
2022/04/08 12:59:51;;;;;;;;;2.00;2.00;;;;;22.78;18.94;97043.00;6090087;28;97955;-71
2022/04/08 13:02:54;;;;;;;;;2.00;2.00;;;;;22.63;18.78;97040.91;6094825;28;96392;-72
2022/04/08 13:05:58;;;;;;;;;3.00;2.50;;;;;22.57;18.74;97029.38;6171592;28;96514;-72
2022/04/08 13:09:01;;;;;;;;;2.20;2.00;;;;;22.51;18.26;97039.00;6085990;28;96830;-72
2022/04/08 13:12:05;;;;;;;;;1.00;1.00;;;;;22.48;18.28;97018.50;6146279;28;97352;-72
2022/04/08 13:15:11;;;;;;;;;2.00;2.00;;;;;22.38;18.23;97040.16;6131319;28;98729;-72
2022/04/08 13:18:14;;;;;;;;;2.00;1.00;;;;;22.33;18.65;97027.41;6164310;28;98375;-72
2022/04/08 13:21:19;;;;;;;;;2.00;2.00;;;;;22.40;18.63;97021.38;6214329;28;96830;-72
2022/04/08 13:24:22;;;;;;;;;1.00;1.00;;;;;22.57;18.46;97012.91;6215638;28;97416;-71
2022/04/08 13:27:26;;;;;;;;;1.00;1.00;;;;;22.80;19.08;97011.31;6192286;28;97263;-72
2022/04/08 13:30:30;;;;;;;;;3.00;1.00;;;;;22.71;18.95;96987.84;6214249;28;96952;-72
2022/04/08 13:33:33;;;;;;;;;2.00;2.00;;;;;22.17;18.67;96959.84;6212566;28;97940;-72
2022/04/08 13:36:37;;;;;;;;;3.00;3.00;;;;;22.45;19.32;96989.00;6191461;28;99004;-72
2022/04/08 13:39:40;;;;;;;;;2.00;2.00;;;;;22.48;18.08;97000.44;6088488;28;96327;-72
2022/04/08 13:42:44;;;;;;;;;2.00;2.00;;;;;22.53;17.94;96981.75;6089397;28;96343;-72
2022/04/08 13:45:49;;;;;;;;;2.00;1.00;;;;;22.61;18.36;96988.28;6088753;28;96453;-72
2022/04/08 13:48:56;;;;;;;;;2.00;1.00;;;;;22.48;18.11;96983.97;6092491;28;96306;-72
2022/04/08 13:52:00;;;;;;;;;1.00;1.00;;;;;22.46;18.11;96984.31;6090052;28;96308;-72
2022/04/08 13:55:04;;;;;;;;;2.00;2.00;;;;;22.34;18.18;96982.34;6088370;28;98332;-72
2022/04/08 13:58:07;;;;;;;;;2.00;2.00;;;;;22.36;18.57;96971.84;6149193;28;96338;-72
2022/04/08 14:01:12;;;;;;;;;1.25;1.00;;;;;22.41;18.79;96974.38;6107612;28;97948;-72
2022/04/08 14:04:16;;;;;;;;;1.00;1.00;;;;;22.38;18.65;96958.56;6089978;28;96323;-71
2022/04/08 14:07:19;;;;;;;;;2.00;2.00;;;;;22.54;18.66;96952.38;6112925;28;96405;-72
2022/04/08 14:10:22;;;;;;;;;1.40;1.40;;;;;22.55;18.51;96957.53;6231082;28;97335;-72
2022/04/08 14:13:25;;;;;;;;;2.00;2.00;;;;;22.45;18.40;96936.81;6214181;28;96523;-72
2022/04/08 14:16:31;;;;;;;;;2.00;2.00;;;;;21.89;18.88;96943.25;6214386;28;96446;-72
2022/04/08 14:19:34;;;;;;;;;1.25;1.25;;;;;21.55;19.08;96928.00;6090708;28;96324;-71
2022/04/08 14:22:38;;;;;;;;;1.00;1.00;;;;;21.36;19.67;96941.41;6084702;28;97583;-71
2022/04/08 14:25:42;;;;;;;;;1.20;1.20;;;;;21.24;19.49;96936.69;6089411;28;97435;-72
2022/04/08 14:28:49;;;;;;;;;1.20;1.20;;;;;21.24;19.73;96933.97;6170328;28;97610;-71
2022/04/08 14:31:54;;;;;;;;;2.40;2.40;;;;;20.99;19.96;96926.75;6214211;28;97459;-71